sensor_id;sensor_type;location;lat;lon;timestamp;pressure;altitude;pressure_sealevel;temperature;humidity
57668;BME280;43499;52.366;12.912;2023-06-24T18:37:06;101779.50;;;23.15;53.83
57668;BME280;43499;52.366;12.912;2023-06-24T18:38:20;101776.50;;;23.08;53.93
57668;BME280;43499;52.366;12.912;2023-06-24T18:40:20;101829.91;;;23.41;54.35
57668;BME280;43499;52.366;12.912;2023-06-24T18:42:02;101809.03;;;23.34;54.23
57668;BME280;43499;52.366;12.912;2023-06-24T18:43:13;101731.22;;;22.95;54.24
57668;BME280;43499;52.366;12.912;2023-06-24T18:44:33;101807.03;;;23.30;54.32
57668;BME280;43499;52.366;12.912;2023-06-24T18:47:47;101763.41;;;22.95;54.76
57668;BME280;43499;52.366;12.912;2023-06-24T18:48:56;101747.78;;;22.86;54.83
57668;BME280;43499;52.366;12.912;2023-06-24T18:49:57;101828.50;;;23.30;54.82
57668;BME280;43499;52.366;12.912;2023-06-24T18:51:40;101816.88;;;23.30;54.84
57668;BME280;43499;52.366;12.912;2023-06-24T18:54:26;101826.34;;;23.21;55.98
57668;BME280;43499;52.366;12.912;2023-06-24T18:55:48;101779.34;;;22.92;57.00
57668;BME280;43499;52.366;12.912;2023-06-24T18:57:04;101777.34;;;22.88;57.02
57668;BME280;43499;52.366;12.912;2023-06-24T18:58:50;101795.78;;;23.00;57.56
57668;BME280;43499;52.366;12.912;2023-06-24T19:00:09;101769.56;;;22.74;57.50
57668;BME280;43499;52.366;12.912;2023-06-24T19:01:49;101737.66;;;22.61;57.93
57668;BME280;43499;52.366;12.912;2023-06-24T19:02:59;101807.84;;;22.90;58.13
57668;BME280;43499;52.366;12.912;2023-06-24T19:04:07;101824.44;;;23.01;58.62
57668;BME280;43499;52.366;12.912;2023-06-24T19:05:24;101759.94;;;22.60;59.31
57668;BME280;43499;52.366;12.912;2023-06-24T19:06:32;101765.06;;;22.55;59.41
57668;BME280;43499;52.366;12.912;2023-06-24T19:07:42;101756.91;;;22.52;59.50
57668;BME280;43499;52.366;12.912;2023-06-24T19:08:43;101757.03;;;22.55;59.55
57668;BME280;43499;52.366;12.912;2023-06-24T19:09:49;101769.75;;;22.59;59.85
57668;BME280;43499;52.366;12.912;2023-06-24T19:11:09;101735.50;;;22.35;60.43
57668;BME280;43499;52.366;12.912;2023-06-24T19:12:16;101800.59;;;22.69;61.54
57668;BME280;43499;52.366;12.912;2023-06-24T19:14:12;101815.06;;;22.73;62.52
57668;BME280;43499;52.366;12.912;2023-06-24T19:17:51;101821.09;;;22.69;62.68
57668;BME280;43499;52.366;12.912;2023-06-24T19:19:28;101765.28;;;22.24;62.59
57668;BME280;43499;52.366;12.912;2023-06-24T19:20:40;101762.53;;;22.22;62.16
57668;BME280;43499;52.366;12.912;2023-06-24T19:24:27;101775.00;;;22.22;62.55
57668;BME280;43499;52.366;12.912;2023-06-24T19:28:19;101759.38;;;21.95;62.97
57668;BME280;43499;52.366;12.912;2023-06-24T19:29:27;101799.88;;;22.19;62.88
57668;BME280;43499;52.366;12.912;2023-06-24T19:30:39;101767.84;;;22.04;62.75
57668;BME280;43499;52.366;12.912;2023-06-24T19:32:02;101820.75;;;22.26;63.05
57668;BME280;43499;52.366;12.912;2023-06-24T19:33:17;101769.16;;;21.94;63.51
57668;BME280;43499;52.366;12.912;2023-06-24T19:34:37;101798.31;;;22.06;63.41
57668;BME280;43499;52.366;12.912;2023-06-24T19:36:41;101756.53;;;21.73;64.80
57668;BME280;43499;52.366;12.912;2023-06-24T19:38:10;101810.34;;;21.96;65.06
57668;BME280;43499;52.366;12.912;2023-06-24T19:39:56;101803.50;;;21.85;65.78
57668;BME280;43499;52.366;12.912;2023-06-24T19:41:48;101780.28;;;21.67;65.54
57668;BME280;43499;52.366;12.912;2023-06-24T19:42:52;101780.03;;;21.63;65.25
57668;BME280;43499;52.366;12.912;2023-06-24T19:46:16;101766.06;;;21.35;66.74
57668;BME280;43499;52.366;12.912;2023-06-24T19:48:04;101801.41;;;21.46;66.01
57668;BME280;43499;52.366;12.912;2023-06-24T19:49:29;101766.72;;;21.31;66.25
57668;BME280;43499;52.366;12.912;2023-06-24T19:50:46;101789.31;;;21.36;65.09
57668;BME280;43499;52.366;12.912;2023-06-24T19:52:11;101803.81;;;21.41;64.82
57668;BME280;43499;52.366;12.912;2023-06-24T19:53:40;101845.91;;;21.61;64.83
57668;BME280;43499;52.366;12.912;2023-06-24T19:54:47;101824.75;;;21.49;65.04
57668;BME280;43499;52.366;12.912;2023-06-24T19:56:40;101766.81;;;21.16;64.79
57668;BME280;43499;52.366;12.912;2023-06-24T19:57:48;101772.41;;;21.21;65.74
57668;BME280;43499;52.366;12.912;2023-06-24T19:58:50;101743.84;;;21.03;65.43
57668;BME280;43499;52.366;12.912;2023-06-24T20:00:21;101827.31;;;21.47;66.37
57668;BME280;43499;52.366;12.912;2023-06-24T20:02:09;101750.63;;;20.96;66.73
57668;BME280;43499;52.366;12.912;2023-06-24T20:03:22;101780.78;;;21.10;67.39
57668;BME280;43499;52.366;12.912;2023-06-24T20:04:40;101732.72;;;20.79;67.61
57668;BME280;43499;52.366;12.912;2023-06-24T20:06:14;101823.47;;;21.25;68.86
57668;BME280;43499;52.366;12.912;2023-06-24T20:07:37;101799.75;;;20.99;69.13
57668;BME280;43499;52.366;12.912;2023-06-24T20:08:46;101836.84;;;21.09;69.60
57668;BME280;43499;52.366;12.912;2023-06-24T20:10:22;101827.88;;;21.08;70.49
57668;BME280;43499;52.366;12.912;2023-06-24T20:11:52;101834.81;;;21.05;70.21
57668;BME280;43499;52.366;12.912;2023-06-24T20:13:23;101800.53;;;20.81;70.36
57668;BME280;43499;52.366;12.912;2023-06-24T20:27:21;101828.16;;;20.66;73.98
57668;BME280;43499;52.366;12.912;2023-06-24T20:49:16;101817.22;;;20.30;75.22
57668;BME280;43499;52.366;12.912;2023-06-24T23:31:28;101816.41;;;17.68;89.90
57668;BME280;43499;52.366;12.912;2023-06-24T23:34:29;101752.69;;;17.31;88.64
